sensor_id;sensor_type;location;lat;lon;timestamp;temperature;humidity
27978;DHT22;15314;49.248;6.968;2023-11-21T00:00:48;10.50;99.90
27978;DHT22;15314;49.248;6.968;2023-11-21T00:01:49;10.50;99.90
27978;DHT22;15314;49.248;6.968;2023-11-21T00:02:50;10.50;99.90
27978;DHT22;15314;49.248;6.968;2023-11-21T00:03:50;10.50;99.90
27978;DHT22;15314;49.248;6.968;2023-11-21T00:04:51;10.50;99.90
27978;DHT22;15314;49.248;6.968;2023-11-21T00:05:52;10.50;99.90
27978;DHT22;15314;49.248;6.968;2023-11-21T00:06:54;10.50;99.90
27978;DHT22;15314;49.248;6.968;2023-11-21T00:07:54;10.50;99.90
27978;DHT22;15314;49.248;6.968;2023-11-21T00:08:55;10.40;99.90
27978;DHT22;15314;49.248;6.968;2023-11-21T00:09:56;10.40;99.90
27978;DHT22;15314;49.248;6.968;2023-11-21T00:10:56;10.30;99.90
27978;DHT22;15314;49.248;6.968;2023-11-21T00:11:57;10.30;99.90
27978;DHT22;15314;49.248;6.968;2023-11-21T00:12:59;10.30;99.90
27978;DHT22;15314;49.248;6.968;2023-11-21T00:14:00;10.30;99.90
27978;DHT22;15314;49.248;6.968;2023-11-21T00:15:01;10.30;99.90
27978;DHT22;15314;49.248;6.968;2023-11-21T00:16:02;10.30;99.90
27978;DHT22;15314;49.248;6.968;2023-11-21T00:17:03;10.40;99.90
27978;DHT22;15314;49.248;6.968;2023-11-21T00:18:03;10.40;99.90
27978;DHT22;15314;49.248;6.968;2023-11-21T00:19:04;10.40;99.90
27978;DHT22;15314;49.248;6.968;2023-11-21T00:20:08;10.40;99.90
27978;DHT22;15314;49.248;6.968;2023-11-21T00:21:09;10.30;99.90
27978;DHT22;15314;49.248;6.968;2023-11-21T00:22:09;10.40;99.90
27978;DHT22;15314;49.248;6.968;2023-11-21T00:23:10;10.50;99.90
27978;DHT22;15314;49.248;6.968;2023-11-21T00:24:12;10.50;99.90
27978;DHT22;15314;49.248;6.968;2023-11-21T00:25:14;10.60;99.90
27978;DHT22;15314;49.248;6.968;2023-11-21T00:26:15;10.50;99.90
27978;DHT22;15314;49.248;6.968;2023-11-21T00:27:16;10.50;99.90
27978;DHT22;15314;49.248;6.968;2023-11-21T00:28:16;10.50;99.90
27978;DHT22;15314;49.248;6.968;2023-11-21T00:29:17;10.50;99.90
27978;DHT22;15314;49.248;6.968;2023-11-21T00:30:18;10.50;99.90
27978;DHT22;15314;49.248;6.968;2023-11-21T00:31:20;10.50;99.90
27978;DHT22;15314;49.248;6.968;2023-11-21T00:32:21;10.50;99.90
27978;DHT22;15314;49.248;6.968;2023-11-21T00:33:21;10.60;99.90
27978;DHT22;15314;49.248;6.968;2023-11-21T00:34:22;10.60;99.90
27978;DHT22;15314;49.248;6.968;2023-11-21T00:35:23;10.50;99.90
27978;DHT22;15314;49.248;6.968;2023-11-21T00:36:23;10.60;99.90
27978;DHT22;15314;49.248;6.968;2023-11-21T00:37:24;10.60;99.90
27978;DHT22;15314;49.248;6.968;2023-11-21T00:38:25;10.60;99.90
27978;DHT22;15314;49.248;6.968;2023-11-21T00:39:25;10.60;99.90
27978;DHT22;15314;49.248;6.968;2023-11-21T00:40:26;10.70;99.90
27978;DHT22;15314;49.248;6.968;2023-11-21T00:41:27;10.60;99.90
27978;DHT22;15314;49.248;6.968;2023-11-21T00:42:28;10.60;99.90
27978;DHT22;15314;49.248;6.968;2023-11-21T00:43:29;10.60;99.90
27978;DHT22;15314;49.248;6.968;2023-11-21T00:44:29;10.60;99.90
27978;DHT22;15314;49.248;6.968;2023-11-21T00:45:30;10.50;99.90
27978;DHT22;15314;49.248;6.968;2023-11-21T00:46:31;10.50;99.90
27978;DHT22;15314;49.248;6.968;2023-11-21T00:47:31;10.50;99.90
27978;DHT22;15314;49.248;6.968;2023-11-21T00:48:32;10.50;99.90
27978;DHT22;15314;49.248;6.968;2023-11-21T00:49:33;10.60;99.90
27978;DHT22;15314;49.248;6.968;2023-11-21T00:50:33;10.50;99.90
27978;DHT22;15314;49.248;6.968;2023-11-21T00:51:34;10.50;99.90
27978;DHT22;15314;49.248;6.968;2023-11-21T00:52:35;10.50;99.90
27978;DHT22;15314;49.248;6.968;2023-11-21T00:53:36;10.60;99.90
27978;DHT22;15314;49.248;6.968;2023-11-21T00:54:37;10.50;99.90
27978;DHT22;15314;49.248;6.968;2023-11-21T00:55:37;10.50;99.90
27978;DHT22;15314;49.248;6.968;2023-11-21T00:56:40;10.50;99.90
27978;DHT22;15314;49.248;6.968;2023-11-21T00:57:41;10.50;99.90
27978;DHT22;15314;49.248;6.968;2023-11-21T00:58:41;10.40;99.90
27978;DHT22;15314;49.248;6.968;2023-11-21T00:59:50;10.40;99.90
27978;DHT22;15314;49.248;6.968;2023-11-21T01:00:50;10.40;99.90
27978;DHT22;15314;49.248;6.968;2023-11-21T01:01:51;10.40;99.90
27978;DHT22;15314;49.248;6.968;2023-11-21T01:02:52;10.30;99.90
27978;DHT22;15314;49.248;6.968;2023-11-21T01:03:52;10.30;99.90
27978;DHT22;15314;49.248;6.968;2023-11-21T01:04:54;10.30;99.90
27978;DHT22;15314;49.248;6.968;2023-11-21T01:05:55;10.40;99.90
27978;DHT22;15314;49.248;6.968;2023-11-21T01:06:55;10.40;99.90
27978;DHT22;15314;49.248;6.968;2023-11-21T01:07:56;10.40;99.90
27978;DHT22;15314;49.248;6.968;2023-11-21T01:08:57;10.40;99.90
27978;DHT22;15314;49.248;6.968;2023-11-21T01:09:57;10.50;99.90
27978;DHT22;15314;49.248;6.968;2023-11-21T01:10:58;10.50;99.90
27978;DHT22;15314;49.248;6.968;2023-11-21T01:11:58;10.50;99.90
27978;DHT22;15314;49.248;6.968;2023-11-21T01:13:00;10.40;99.90
27978;DHT22;15314;49.248;6.968;2023-11-21T01:14:00;10.40;99.90
27978;DHT22;15314;49.248;6.968;2023-11-21T01:15:01;10.40;99.90
27978;DHT22;15314;49.248;6.968;2023-11-21T01:16:02;10.40;99.90
27978;DHT22;15314;49.248;6.968;2023-11-21T01:17:04;10.40;99.90
27978;DHT22;15314;49.248;6.968;2023-11-21T01:18:05;10.40;99.90
27978;DHT22;15314;49.248;6.968;2023-11-21T01:19:06;10.50;99.90
27978;DHT22;15314;49.248;6.968;2023-11-21T01:20:07;10.50;99.90
27978;DHT22;15314;49.248;6.968;2023-11-21T01:21:12;10.50;99.90
27978;DHT22;15314;49.248;6.968;2023-11-21T01:22:13;10.60;99.90
27978;DHT22;15314;49.248;6.968;2023-11-21T01:23:14;10.60;99.90
27978;DHT22;15314;49.248;6.968;2023-11-21T01:24:14;10.60;99.90
27978;DHT22;15314;49.248;6.968;2023-11-21T01:25:15;10.60;99.90
27978;DHT22;15314;49.248;6.968;2023-11-21T01:26:16;10.60;99.90
27978;DHT22;15314;49.248;6.968;2023-11-21T01:27:17;10.60;99.90
27978;DHT22;15314;49.248;6.968;2023-11-21T01:28:19;10.60;99.90
27978;DHT22;15314;49.248;6.968;2023-11-21T01:29:20;10.60;99.90
27978;DHT22;15314;49.248;6.968;2023-11-21T01:30:20;10.60;99.90
27978;DHT22;15314;49.248;6.968;2023-11-21T01:31:21;10.60;99.90
27978;DHT22;15314;49.248;6.968;2023-11-21T01:32:22;10.60;99.90
27978;DHT22;15314;49.248;6.968;2023-11-21T01:33:23;10.60;99.90
27978;DHT22;15314;49.248;6.968;2023-11-21T01:34:25;10.70;99.90
27978;DHT22;15314;49.248;6.968;2023-11-21T01:35:25;10.80;99.90
27978;DHT22;15314;49.248;6.968;2023-11-21T01:36:32;10.80;99.90
27978;DHT22;15314;49.248;6.968;2023-11-21T01:37:33;10.80;99.90
27978;DHT22;15314;49.248;6.968;2023-11-21T01:38:34;10.80;99.90
27978;DHT22;15314;49.248;6.968;2023-11-21T01:39:35;10.80;99.90
27978;DHT22;15314;49.248;6.968;2023-11-21T01:40:35;10.80;99.90
27978;DHT22;15314;49.248;6.968;2023-11-21T01:41:36;10.70;99.90
27978;DHT22;15314;49.248;6.968;2023-11-21T01:42:37;10.70;99.90
27978;DHT22;15314;49.248;6.968;2023-11-21T01:43:37;10.70;99.90
27978;DHT22;15314;49.248;6.968;2023-11-21T01:44:38;10.70;99.90
27978;DHT22;15314;49.248;6.968;2023-11-21T01:45:39;10.60;99.90
27978;DHT22;15314;49.248;6.968;2023-11-21T01:46:40;10.60;99.90
27978;DHT22;15314;49.248;6.968;2023-11-21T01:47:42;10.50;99.90
27978;DHT22;15314;49.248;6.968;2023-11-21T01:48:45;10.60;99.90
27978;DHT22;15314;49.248;6.968;2023-11-21T01:49:45;10.50;99.90
27978;DHT22;15314;49.248;6.968;2023-11-21T01:50:46;10.60;99.90
27978;DHT22;15314;49.248;6.968;2023-11-21T01:51:48;10.60;99.90
27978;DHT22;15314;49.248;6.968;2023-11-21T01:52:50;10.70;99.90
27978;DHT22;15314;49.248;6.968;2023-11-21T01:53:51;10.70;99.90
27978;DHT22;15314;49.248;6.968;2023-11-21T01:54:52;10.70;99.90
27978;DHT22;15314;49.248;6.968;2023-11-21T01:55:53;10.60;99.90
27978;DHT22;15314;49.248;6.968;2023-11-21T01:56:55;10.70;99.90
27978;DHT22;15314;49.248;6.968;2023-11-21T01:57:56;10.60;99.90
27978;DHT22;15314;49.248;6.968;2023-11-21T01:58:58;10.60;99.90
27978;DHT22;15314;49.248;6.968;2023-11-21T01:59:58;10.60;99.90
27978;DHT22;15314;49.248;6.968;2023-11-21T02:01:01;10.60;99.90
27978;DHT22;15314;49.248;6.968;2023-11-21T02:02:06;10.60;99.90
27978;DHT22;15314;49.248;6.968;2023-11-21T02:03:07;10.50;99.90
27978;DHT22;15314;49.248;6.968;2023-11-21T02:04:07;10.50;99.90
27978;DHT22;15314;49.248;6.968;2023-11-21T02:05:09;10.50;99.90
27978;DHT22;15314;49.248;6.968;2023-11-21T02:06:10;10.50;99.90
27978;DHT22;15314;49.248;6.968;2023-11-21T02:07:10;10.50;99.90
27978;DHT22;15314;49.248;6.968;2023-11-21T02:08:11;10.50;99.90
27978;DHT22;15314;49.248;6.968;2023-11-21T02:09:12;10.50;99.90
27978;DHT22;15314;49.248;6.968;2023-11-21T02:10:15;10.50;99.90
27978;DHT22;15314;49.248;6.968;2023-11-21T02:11:16;10.50;99.90
27978;DHT22;15314;49.248;6.968;2023-11-21T02:12:17;10.50;99.90
27978;DHT22;15314;49.248;6.968;2023-11-21T02:13:17;10.50;99.90
27978;DHT22;15314;49.248;6.968;2023-11-21T02:14:18;10.50;99.90
27978;DHT22;15314;49.248;6.968;2023-11-21T02:15:20;10.60;99.90
27978;DHT22;15314;49.248;6.968;2023-11-21T02:16:21;10.60;99.90
27978;DHT22;15314;49.248;6.968;2023-11-21T02:17:22;10.50;99.90
27978;DHT22;15314;49.248;6.968;2023-11-21T02:18:23;10.50;99.90
27978;DHT22;15314;49.248;6.968;2023-11-21T02:19:24;10.60;99.90
27978;DHT22;15314;49.248;6.968;2023-11-21T02:20:26;10.60;99.90
27978;DHT22;15314;49.248;6.968;2023-11-21T02:21:27;10.60;99.90
27978;DHT22;15314;49.248;6.968;2023-11-21T02:22:30;10.50;99.90
27978;DHT22;15314;49.248;6.968;2023-11-21T02:23:33;10.60;99.90
27978;DHT22;15314;49.248;6.968;2023-11-21T02:24:33;10.60;99.90
27978;DHT22;15314;49.248;6.968;2023-11-21T02:25:34;10.80;99.90
27978;DHT22;15314;49.248;6.968;2023-11-21T02:26:37;10.70;99.90
27978;DHT22;15314;49.248;6.968;2023-11-21T02:27:38;10.70;99.90
27978;DHT22;15314;49.248;6.968;2023-11-21T02:28:38;10.70;99.90
27978;DHT22;15314;49.248;6.968;2023-11-21T02:29:39;10.60;99.90
27978;DHT22;15314;49.248;6.968;2023-11-21T02:30:39;10.60;99.90
27978;DHT22;15314;49.248;6.968;2023-11-21T02:31:40;10.60;99.90
27978;DHT22;15314;49.248;6.968;2023-11-21T02:32:51;10.70;99.90
27978;DHT22;15314;49.248;6.968;2023-11-21T02:33:55;10.70;99.90
27978;DHT22;15314;49.248;6.968;2023-11-21T02:34:55;10.60;99.90
27978;DHT22;15314;49.248;6.968;2023-11-21T02:35:56;10.60;99.90
27978;DHT22;15314;49.248;6.968;2023-11-21T02:36:57;10.60;99.90
27978;DHT22;15314;49.248;6.968;2023-11-21T02:37:58;10.60;99.90
27978;DHT22;15314;49.248;6.968;2023-11-21T02:38:58;10.60;99.90
27978;DHT22;15314;49.248;6.968;2023-11-21T02:39:59;10.50;99.90
27978;DHT22;15314;49.248;6.968;2023-11-21T02:41:00;10.60;99.90
27978;DHT22;15314;49.248;6.968;2023-11-21T02:42:00;10.60;99.90
27978;DHT22;15314;49.248;6.968;2023-11-21T02:43:01;10.70;99.90
27978;DHT22;15314;49.248;6.968;2023-11-21T02:44:02;10.60;99.90
27978;DHT22;15314;49.248;6.968;2023-11-21T02:45:03;10.70;99.90
27978;DHT22;15314;49.248;6.968;2023-11-21T02:46:04;10.70;99.90
27978;DHT22;15314;49.248;6.968;2023-11-21T02:47:04;10.70;99.90
27978;DHT22;15314;49.248;6.968;2023-11-21T02:48:05;10.70;99.90
27978;DHT22;15314;49.248;6.968;2023-11-21T02:49:06;10.60;99.90
27978;DHT22;15314;49.248;6.968;2023-11-21T02:50:07;10.60;99.90
27978;DHT22;15314;49.248;6.968;2023-11-21T02:51:09;10.60;99.90
27978;DHT22;15314;49.248;6.968;2023-11-21T02:52:09;10.60;99.90
27978;DHT22;15314;49.248;6.968;2023-11-21T02:53:10;10.50;99.90
27978;DHT22;15314;49.248;6.968;2023-11-21T02:54:11;10.50;99.90
27978;DHT22;15314;49.248;6.968;2023-11-21T02:55:12;10.50;99.90
27978;DHT22;15314;49.248;6.968;2023-11-21T02:56:13;10.60;99.90
27978;DHT22;15314;49.248;6.968;2023-11-21T02:57:13;10.50;99.90
27978;DHT22;15314;49.248;6.968;2023-11-21T02:58:14;10.50;99.90
27978;DHT22;15314;49.248;6.968;2023-11-21T02:59:15;10.50;99.90
27978;DHT22;15314;49.248;6.968;2023-11-21T03:00:16;10.40;99.90
27978;DHT22;15314;49.248;6.968;2023-11-21T03:01:17;10.50;99.90
27978;DHT22;15314;49.248;6.968;2023-11-21T03:02:18;10.50;99.90
27978;DHT22;15314;49.248;6.968;2023-11-21T03:03:18;10.50;99.90
27978;DHT22;15314;49.248;6.968;2023-11-21T03:04:19;10.50;99.90
27978;DHT22;15314;49.248;6.968;2023-11-21T03:05:20;10.50;99.90
27978;DHT22;15314;49.248;6.968;2023-11-21T03:06:22;10.50;99.90
27978;DHT22;15314;49.248;6.968;2023-11-21T03:07:23;10.50;99.90
27978;DHT22;15314;49.248;6.968;2023-11-21T03:08:24;10.40;99.90
27978;DHT22;15314;49.248;6.968;2023-11-21T03:09:25;10.30;99.90
27978;DHT22;15314;49.248;6.968;2023-11-21T03:10:27;10.30;99.90
27978;DHT22;15314;49.248;6.968;2023-11-21T03:11:27;10.40;99.90
27978;DHT22;15314;49.248;6.968;2023-11-21T03:12:28;10.30;99.90
27978;DHT22;15314;49.248;6.968;2023-11-21T03:13:29;10.40;99.90
27978;DHT22;15314;49.248;6.968;2023-11-21T03:14:30;10.40;99.90
27978;DHT22;15314;49.248;6.968;2023-11-21T03:15:30;10.30;99.90
27978;DHT22;15314;49.248;6.968;2023-11-21T03:16:33;10.30;99.90
27978;DHT22;15314;49.248;6.968;2023-11-21T03:17:33;10.30;99.90
27978;DHT22;15314;49.248;6.968;2023-11-21T03:18:34;10.20;99.90
27978;DHT22;15314;49.248;6.968;2023-11-21T03:19:35;10.20;99.90
27978;DHT22;15314;49.248;6.968;2023-11-21T03:20:35;10.20;99.90
27978;DHT22;15314;49.248;6.968;2023-11-21T03:21:36;10.10;99.90
27978;DHT22;15314;49.248;6.968;2023-11-21T03:22:37;10.40;99.90
27978;DHT22;15314;49.248;6.968;2023-11-21T03:23:38;10.10;99.90
27978;DHT22;15314;49.248;6.968;2023-11-21T03:24:40;10.10;99.90
27978;DHT22;15314;49.248;6.968;2023-11-21T03:25:40;10.30;99.90
27978;DHT22;15314;49.248;6.968;2023-11-21T03:26:41;10.20;99.90
27978;DHT22;15314;49.248;6.968;2023-11-21T03:27:42;10.20;99.90
27978;DHT22;15314;49.248;6.968;2023-11-21T03:28:42;10.30;99.90
27978;DHT22;15314;49.248;6.968;2023-11-21T03:29:43;10.20;99.90
27978;DHT22;15314;49.248;6.968;2023-11-21T03:30:45;10.20;99.90
27978;DHT22;15314;49.248;6.968;2023-11-21T03:31:46;10.20;99.90
27978;DHT22;15314;49.248;6.968;2023-11-21T03:32:46;10.20;99.90
27978;DHT22;15314;49.248;6.968;2023-11-21T03:33:47;10.30;99.90
27978;DHT22;15314;49.248;6.968;2023-11-21T03:34:55;10.20;99.90
27978;DHT22;15314;49.248;6.968;2023-11-21T03:35:56;10.20;99.90
27978;DHT22;15314;49.248;6.968;2023-11-21T03:36:57;10.20;99.90
27978;DHT22;15314;49.248;6.968;2023-11-21T03:37:59;10.20;99.90
27978;DHT22;15314;49.248;6.968;2023-11-21T03:38:59;10.20;99.90
27978;DHT22;15314;49.248;6.968;2023-11-21T03:40:00;10.30;99.90
27978;DHT22;15314;49.248;6.968;2023-11-21T03:41:01;10.30;99.90
27978;DHT22;15314;49.248;6.968;2023-11-21T03:42:01;10.50;99.90
27978;DHT22;15314;49.248;6.968;2023-11-21T03:43:02;10.40;99.90
27978;DHT22;15314;49.248;6.968;2023-11-21T03:44:03;10.40;99.90
27978;DHT22;15314;49.248;6.968;2023-11-21T03:45:05;10.50;99.90
27978;DHT22;15314;49.248;6.968;2023-11-21T03:46:06;10.50;99.90
27978;DHT22;15314;49.248;6.968;2023-11-21T03:47:07;10.50;99.90
27978;DHT22;15314;49.248;6.968;2023-11-21T03:48:08;10.60;99.90
27978;DHT22;15314;49.248;6.968;2023-11-21T03:49:09;10.70;99.90
27978;DHT22;15314;49.248;6.968;2023-11-21T03:50:10;10.60;99.90
27978;DHT22;15314;49.248;6.968;2023-11-21T03:51:10;10.60;99.90
27978;DHT22;15314;49.248;6.968;2023-11-21T03:52:11;10.50;99.90
27978;DHT22;15314;49.248;6.968;2023-11-21T03:53:12;10.60;99.90
27978;DHT22;15314;49.248;6.968;2023-11-21T03:54:12;10.50;99.90
27978;DHT22;15314;49.248;6.968;2023-11-21T03:55:14;10.50;99.90
27978;DHT22;15314;49.248;6.968;2023-11-21T03:56:15;10.50;99.90
27978;DHT22;15314;49.248;6.968;2023-11-21T03:57:16;10.50;99.90
27978;DHT22;15314;49.248;6.968;2023-11-21T03:58:16;10.60;99.90
27978;DHT22;15314;49.248;6.968;2023-11-21T03:59:17;10.60;99.90
27978;DHT22;15314;49.248;6.968;2023-11-21T04:00:18;10.60;99.90
27978;DHT22;15314;49.248;6.968;2023-11-21T04:01:21;10.60;99.90
27978;DHT22;15314;49.248;6.968;2023-11-21T04:02:22;10.50;99.90
27978;DHT22;15314;49.248;6.968;2023-11-21T04:03:22;10.60;99.90
27978;DHT22;15314;49.248;6.968;2023-11-21T04:04:23;10.50;99.90
27978;DHT22;15314;49.248;6.968;2023-11-21T04:05:24;10.40;99.90
27978;DHT22;15314;49.248;6.968;2023-11-21T04:06:25;10.60;99.90
27978;DHT22;15314;49.248;6.968;2023-11-21T04:07:25;10.40;99.90
27978;DHT22;15314;49.248;6.968;2023-11-21T04:08:26;10.30;99.90
27978;DHT22;15314;49.248;6.968;2023-11-21T04:09:27;10.40;99.90
27978;DHT22;15314;49.248;6.968;2023-11-21T04:10:28;10.40;99.90
27978;DHT22;15314;49.248;6.968;2023-11-21T04:11:29;10.50;99.90
27978;DHT22;15314;49.248;6.968;2023-11-21T04:12:30;10.40;99.90
27978;DHT22;15314;49.248;6.968;2023-11-21T04:13:30;10.40;99.90
27978;DHT22;15314;49.248;6.968;2023-11-21T04:14:31;10.40;99.90
27978;DHT22;15314;49.248;6.968;2023-11-21T04:15:32;10.30;99.90
27978;DHT22;15314;49.248;6.968;2023-11-21T04:16:33;10.30;99.90
27978;DHT22;15314;49.248;6.968;2023-11-21T04:17:34;10.30;99.90
27978;DHT22;15314;49.248;6.968;2023-11-21T04:18:38;10.40;99.90
27978;DHT22;15314;49.248;6.968;2023-11-21T04:19:39;10.40;99.90
27978;DHT22;15314;49.248;6.968;2023-11-21T04:20:39;10.40;99.90
27978;DHT22;15314;49.248;6.968;2023-11-21T04:21:41;10.30;99.90
27978;DHT22;15314;49.248;6.968;2023-11-21T04:22:44;10.40;99.90
27978;DHT22;15314;49.248;6.968;2023-11-21T04:23:44;10.50;99.90
27978;DHT22;15314;49.248;6.968;2023-11-21T04:24:45;10.60;99.90
27978;DHT22;15314;49.248;6.968;2023-11-21T04:25:46;10.60;99.90
27978;DHT22;15314;49.248;6.968;2023-11-21T04:26:47;10.70;99.90
27978;DHT22;15314;49.248;6.968;2023-11-21T04:27:48;10.70;99.90
27978;DHT22;15314;49.248;6.968;2023-11-21T04:28:48;10.80;99.90
27978;DHT22;15314;49.248;6.968;2023-11-21T04:29:50;10.80;99.90
27978;DHT22;15314;49.248;6.968;2023-11-21T04:30:50;10.90;99.90
27978;DHT22;15314;49.248;6.968;2023-11-21T04:31:51;10.80;99.90
27978;DHT22;15314;49.248;6.968;2023-11-21T04:32:52;10.70;99.90
27978;DHT22;15314;49.248;6.968;2023-11-21T04:33:52;10.60;99.90
27978;DHT22;15314;49.248;6.968;2023-11-21T04:34:53;10.60;99.90
27978;DHT22;15314;49.248;6.968;2023-11-21T04:35:54;10.60;99.90
27978;DHT22;15314;49.248;6.968;2023-11-21T04:36:55;10.60;99.90
27978;DHT22;15314;49.248;6.968;2023-11-21T04:37:55;10.60;99.90
27978;DHT22;15314;49.248;6.968;2023-11-21T04:38:57;10.40;99.90
27978;DHT22;15314;49.248;6.968;2023-11-21T04:39:58;10.40;99.90
27978;DHT22;15314;49.248;6.968;2023-11-21T04:40:59;10.50;99.90
27978;DHT22;15314;49.248;6.968;2023-11-21T04:41:59;10.50;99.90
27978;DHT22;15314;49.248;6.968;2023-11-21T04:43:00;10.50;99.90
27978;DHT22;15314;49.248;6.968;2023-11-21T04:44:02;10.60;99.90
27978;DHT22;15314;49.248;6.968;2023-11-21T04:45:04;10.50;99.90
27978;DHT22;15314;49.248;6.968;2023-11-21T04:46:09;10.60;99.90
27978;DHT22;15314;49.248;6.968;2023-11-21T04:47:09;10.50;99.90
27978;DHT22;15314;49.248;6.968;2023-11-21T04:48:10;10.50;99.90
27978;DHT22;15314;49.248;6.968;2023-11-21T04:49:11;10.40;99.90
27978;DHT22;15314;49.248;6.968;2023-11-21T04:50:11;10.30;99.90
27978;DHT22;15314;49.248;6.968;2023-11-21T04:51:12;10.30;99.90
27978;DHT22;15314;49.248;6.968;2023-11-21T04:52:13;10.30;99.90
27978;DHT22;15314;49.248;6.968;2023-11-21T04:53:13;10.20;99.90
27978;DHT22;15314;49.248;6.968;2023-11-21T04:54:14;10.20;99.90
27978;DHT22;15314;49.248;6.968;2023-11-21T04:55:15;10.20;99.90
27978;DHT22;15314;49.248;6.968;2023-11-21T04:56:16;10.20;99.90
27978;DHT22;15314;49.248;6.968;2023-11-21T04:57:16;10.30;99.90
27978;DHT22;15314;49.248;6.968;2023-11-21T04:58:19;10.20;99.90
27978;DHT22;15314;49.248;6.968;2023-11-21T04:59:21;10.30;99.90
27978;DHT22;15314;49.248;6.968;2023-11-21T05:00:25;10.30;99.90
27978;DHT22;15314;49.248;6.968;2023-11-21T05:01:25;10.30;99.90
27978;DHT22;15314;49.248;6.968;2023-11-21T05:02:26;10.40;99.90
27978;DHT22;15314;49.248;6.968;2023-11-21T05:03:27;10.40;99.90
27978;DHT22;15314;49.248;6.968;2023-11-21T05:04:30;10.40;99.90
27978;DHT22;15314;49.248;6.968;2023-11-21T05:05:30;10.40;99.90
27978;DHT22;15314;49.248;6.968;2023-11-21T05:06:31;10.40;99.90
27978;DHT22;15314;49.248;6.968;2023-11-21T05:07:33;10.50;99.90
27978;DHT22;15314;49.248;6.968;2023-11-21T05:08:35;10.50;99.90
27978;DHT22;15314;49.248;6.968;2023-11-21T05:09:41;10.60;99.90
27978;DHT22;15314;49.248;6.968;2023-11-21T05:10:44;10.40;99.90
27978;DHT22;15314;49.248;6.968;2023-11-21T05:11:45;10.40;99.90
27978;DHT22;15314;49.248;6.968;2023-11-21T05:12:45;10.50;99.90
27978;DHT22;15314;49.248;6.968;2023-11-21T05:13:46;10.50;99.90
27978;DHT22;15314;49.248;6.968;2023-11-21T05:14:47;10.60;99.90
27978;DHT22;15314;49.248;6.968;2023-11-21T05:15:49;10.60;99.90
27978;DHT22;15314;49.248;6.968;2023-11-21T05:16:50;10.70;99.90
27978;DHT22;15314;49.248;6.968;2023-11-21T05:17:51;10.70;99.90
27978;DHT22;15314;49.248;6.968;2023-11-21T05:18:52;10.90;99.90
27978;DHT22;15314;49.248;6.968;2023-11-21T05:19:53;10.70;99.90
27978;DHT22;15314;49.248;6.968;2023-11-21T05:20:53;10.70;99.90
27978;DHT22;15314;49.248;6.968;2023-11-21T05:21:54;10.80;99.90
27978;DHT22;15314;49.248;6.968;2023-11-21T05:22:55;10.80;99.90
27978;DHT22;15314;49.248;6.968;2023-11-21T05:23:55;11.00;99.90
27978;DHT22;15314;49.248;6.968;2023-11-21T05:24:56;10.70;99.90
27978;DHT22;15314;49.248;6.968;2023-11-21T05:25:57;10.70;99.90
27978;DHT22;15314;49.248;6.968;2023-11-21T05:26:57;10.70;99.90
27978;DHT22;15314;49.248;6.968;2023-11-21T05:27:58;10.70;99.90
27978;DHT22;15314;49.248;6.968;2023-11-21T05:29:01;10.80;99.90
27978;DHT22;15314;49.248;6.968;2023-11-21T05:30:05;10.90;99.90
27978;DHT22;15314;49.248;6.968;2023-11-21T05:31:06;10.70;99.90
27978;DHT22;15314;49.248;6.968;2023-11-21T05:32:06;10.80;99.90
27978;DHT22;15314;49.248;6.968;2023-11-21T05:33:07;10.80;99.90
27978;DHT22;15314;49.248;6.968;2023-11-21T05:34:07;10.90;99.90
27978;DHT22;15314;49.248;6.968;2023-11-21T05:35:08;10.90;99.90
27978;DHT22;15314;49.248;6.968;2023-11-21T05:36:27;10.80;99.90
27978;DHT22;15314;49.248;6.968;2023-11-21T05:37:28;10.90;99.90
27978;DHT22;15314;49.248;6.968;2023-11-21T05:38:29;10.90;99.90
27978;DHT22;15314;49.248;6.968;2023-11-21T05:39:30;10.90;99.90
27978;DHT22;15314;49.248;6.968;2023-11-21T05:40:30;10.80;99.90
27978;DHT22;15314;49.248;6.968;2023-11-21T05:41:31;10.80;99.90
27978;DHT22;15314;49.248;6.968;2023-11-21T05:42:35;10.90;99.90
27978;DHT22;15314;49.248;6.968;2023-11-21T05:43:35;10.80;99.90
27978;DHT22;15314;49.248;6.968;2023-11-21T05:44:37;10.90;99.90
27978;DHT22;15314;49.248;6.968;2023-11-21T05:45:38;10.90;99.90
27978;DHT22;15314;49.248;6.968;2023-11-21T05:46:38;11.00;99.90
27978;DHT22;15314;49.248;6.968;2023-11-21T05:47:41;10.80;99.90
27978;DHT22;15314;49.248;6.968;2023-11-21T05:48:42;10.90;99.90
27978;DHT22;15314;49.248;6.968;2023-11-21T05:49:43;10.90;99.90
27978;DHT22;15314;49.248;6.968;2023-11-21T05:50:45;10.90;99.90
27978;DHT22;15314;49.248;6.968;2023-11-21T05:51:46;10.90;99.90
27978;DHT22;15314;49.248;6.968;2023-11-21T05:52:47;10.90;99.90
27978;DHT22;15314;49.248;6.968;2023-11-21T05:53:48;10.90;99.90
27978;DHT22;15314;49.248;6.968;2023-11-21T05:54:48;10.90;99.90
27978;DHT22;15314;49.248;6.968;2023-11-21T05:55:49;10.90;99.90
27978;DHT22;15314;49.248;6.968;2023-11-21T05:56:50;10.90;99.90
27978;DHT22;15314;49.248;6.968;2023-11-21T05:57:50;10.90;99.90
27978;DHT22;15314;49.248;6.968;2023-11-21T05:58:51;10.90;99.90
27978;DHT22;15314;49.248;6.968;2023-11-21T05:59:52;10.90;99.90
27978;DHT22;15314;49.248;6.968;2023-11-21T06:00:53;11.00;99.90
27978;DHT22;15314;49.248;6.968;2023-11-21T06:01:54;11.00;99.90
27978;DHT22;15314;49.248;6.968;2023-11-21T06:02:54;10.90;99.90
27978;DHT22;15314;49.248;6.968;2023-11-21T06:03:55;10.90;99.90
27978;DHT22;15314;49.248;6.968;2023-11-21T06:04:56;10.90;99.90
27978;DHT22;15314;49.248;6.968;2023-11-21T06:05:56;10.90;99.90
27978;DHT22;15314;49.248;6.968;2023-11-21T06:06:57;10.80;99.90
27978;DHT22;15314;49.248;6.968;2023-11-21T06:07:57;10.90;99.90
27978;DHT22;15314;49.248;6.968;2023-11-21T06:09:01;10.90;99.90
27978;DHT22;15314;49.248;6.968;2023-11-21T06:10:03;10.90;99.90
27978;DHT22;15314;49.248;6.968;2023-11-21T06:11:08;11.00;99.90
27978;DHT22;15314;49.248;6.968;2023-11-21T06:12:11;10.90;99.90
27978;DHT22;15314;49.248;6.968;2023-11-21T06:13:12;11.00;99.90
27978;DHT22;15314;49.248;6.968;2023-11-21T06:14:13;10.90;99.90
27978;DHT22;15314;49.248;6.968;2023-11-21T06:15:13;10.90;99.90
27978;DHT22;15314;49.248;6.968;2023-11-21T06:16:14;10.90;99.90
27978;DHT22;15314;49.248;6.968;2023-11-21T06:17:16;10.90;99.90
27978;DHT22;15314;49.248;6.968;2023-11-21T06:18:18;10.90;99.90
27978;DHT22;15314;49.248;6.968;2023-11-21T06:19:19;10.80;99.90
27978;DHT22;15314;49.248;6.968;2023-11-21T06:20:21;10.80;99.90
27978;DHT22;15314;49.248;6.968;2023-11-21T06:21:22;11.00;99.90
27978;DHT22;15314;49.248;6.968;2023-11-21T06:22:23;10.80;99.90
27978;DHT22;15314;49.248;6.968;2023-11-21T06:23:25;10.80;99.90
27978;DHT22;15314;49.248;6.968;2023-11-21T06:24:25;10.80;99.90
27978;DHT22;15314;49.248;6.968;2023-11-21T06:25:26;10.80;99.90
27978;DHT22;15314;49.248;6.968;2023-11-21T06:26:27;10.80;99.90